sensor_id;sensor_type;location;lat;lon;timestamp;P1;durP1;ratioP1;P2;durP2;ratioP2
49812;SDS011;35706;52.100;5.056;2023-07-29T00:00:39;0.95;;;0.28;;
49812;SDS011;35706;52.100;5.056;2023-07-29T00:01:40;1.10;;;0.20;;
49812;SDS011;35706;52.100;5.056;2023-07-29T00:02:41;2.42;;;0.30;;
49812;SDS011;35706;52.100;5.056;2023-07-29T00:03:42;1.67;;;0.30;;
49812;SDS011;35706;52.100;5.056;2023-07-29T00:04:42;0.88;;;0.30;;
49812;SDS011;35706;52.100;5.056;2023-07-29T00:05:42;2.10;;;0.30;;
49812;SDS011;35706;52.100;5.056;2023-07-29T00:06:43;1.85;;;0.30;;
49812;SDS011;35706;52.100;5.056;2023-07-29T00:07:43;2.88;;;0.30;;
49812;SDS011;35706;52.100;5.056;2023-07-29T00:08:44;2.35;;;0.20;;
49812;SDS011;35706;52.100;5.056;2023-07-29T00:09:44;1.65;;;0.30;;
49812;SDS011;35706;52.100;5.056;2023-07-29T00:10:44;0.70;;;0.20;;
49812;SDS011;35706;52.100;5.056;2023-07-29T00:11:45;2.88;;;0.30;;
49812;SDS011;35706;52.100;5.056;2023-07-29T00:12:45;1.67;;;0.20;;
49812;SDS011;35706;52.100;5.056;2023-07-29T00:13:45;2.17;;;0.30;;
49812;SDS011;35706;52.100;5.056;2023-07-29T00:14:47;2.30;;;0.30;;
49812;SDS011;35706;52.100;5.056;2023-07-29T00:15:47;4.35;;;0.30;;
49812;SDS011;35706;52.100;5.056;2023-07-29T00:16:47;1.40;;;0.20;;
49812;SDS011;35706;52.100;5.056;2023-07-29T00:17:48;1.52;;;0.32;;
49812;SDS011;35706;52.100;5.056;2023-07-29T00:18:49;1.92;;;0.30;;
49812;SDS011;35706;52.100;5.056;2023-07-29T00:19:49;5.00;;;0.55;;
49812;SDS011;35706;52.100;5.056;2023-07-29T00:20:50;1.75;;;0.40;;
49812;SDS011;35706;52.100;5.056;2023-07-29T00:21:50;1.73;;;0.28;;
49812;SDS011;35706;52.100;5.056;2023-07-29T00:22:50;0.73;;;0.30;;
49812;SDS011;35706;52.100;5.056;2023-07-29T00:23:53;2.00;;;0.30;;
49812;SDS011;35706;52.100;5.056;2023-07-29T00:24:54;1.85;;;0.30;;
49812;SDS011;35706;52.100;5.056;2023-07-29T00:25:55;1.40;;;0.35;;
49812;SDS011;35706;52.100;5.056;2023-07-29T00:26:55;1.77;;;0.30;;
49812;SDS011;35706;52.100;5.056;2023-07-29T00:27:55;1.80;;;0.35;;
49812;SDS011;35706;52.100;5.056;2023-07-29T00:28:56;0.77;;;0.30;;
49812;SDS011;35706;52.100;5.056;2023-07-29T00:29:56;1.83;;;0.30;;
49812;SDS011;35706;52.100;5.056;2023-07-29T00:30:57;2.03;;;0.30;;
49812;SDS011;35706;52.100;5.056;2023-07-29T00:31:57;1.52;;;0.38;;
49812;SDS011;35706;52.100;5.056;2023-07-29T00:32:57;0.80;;;0.32;;
49812;SDS011;35706;52.100;5.056;2023-07-29T00:33:58;3.75;;;0.40;;
49812;SDS011;35706;52.100;5.056;2023-07-29T00:34:58;4.63;;;0.30;;
49812;SDS011;35706;52.100;5.056;2023-07-29T00:36:00;1.33;;;0.40;;
49812;SDS011;35706;52.100;5.056;2023-07-29T00:37:02;2.35;;;0.30;;
49812;SDS011;35706;52.100;5.056;2023-07-29T00:38:03;2.28;;;0.38;;
49812;SDS011;35706;52.100;5.056;2023-07-29T00:39:03;1.75;;;0.40;;
49812;SDS011;35706;52.100;5.056;2023-07-29T00:40:06;1.63;;;0.40;;
49812;SDS011;35706;52.100;5.056;2023-07-29T00:41:13;2.17;;;0.40;;
49812;SDS011;35706;52.100;5.056;2023-07-29T00:42:14;3.65;;;0.40;;
49812;SDS011;35706;52.100;5.056;2023-07-29T00:43:14;1.83;;;0.40;;
49812;SDS011;35706;52.100;5.056;2023-07-29T00:44:14;2.53;;;0.43;;
49812;SDS011;35706;52.100;5.056;2023-07-29T00:45:15;2.20;;;0.32;;
49812;SDS011;35706;52.100;5.056;2023-07-29T00:46:15;4.80;;;0.68;;
49812;SDS011;35706;52.100;5.056;2023-07-29T00:47:17;3.75;;;0.40;;
49812;SDS011;35706;52.100;5.056;2023-07-29T00:48:19;3.63;;;0.47;;
49812;SDS011;35706;52.100;5.056;2023-07-29T00:49:20;4.82;;;0.40;;
49812;SDS011;35706;52.100;5.056;2023-07-29T00:50:21;2.25;;;0.40;;
49812;SDS011;35706;52.100;5.056;2023-07-29T00:51:21;2.45;;;0.50;;
49812;SDS011;35706;52.100;5.056;2023-07-29T00:52:22;2.90;;;0.40;;
49812;SDS011;35706;52.100;5.056;2023-07-29T00:53:22;1.35;;;0.50;;
49812;SDS011;35706;52.100;5.056;2023-07-29T00:54:22;2.15;;;0.35;;
49812;SDS011;35706;52.100;5.056;2023-07-29T00:55:23;1.85;;;0.40;;
49812;SDS011;35706;52.100;5.056;2023-07-29T00:56:24;1.65;;;0.43;;
49812;SDS011;35706;52.100;5.056;2023-07-29T00:57:24;3.00;;;0.45;;
49812;SDS011;35706;52.100;5.056;2023-07-29T00:58:25;2.13;;;0.50;;
49812;SDS011;35706;52.100;5.056;2023-07-29T00:59:25;2.88;;;0.50;;
49812;SDS011;35706;52.100;5.056;2023-07-29T01:00:28;1.20;;;0.40;;
49812;SDS011;35706;52.100;5.056;2023-07-29T01:01:28;1.98;;;0.50;;
49812;SDS011;35706;52.100;5.056;2023-07-29T01:02:29;2.78;;;0.50;;
49812;SDS011;35706;52.100;5.056;2023-07-29T01:03:32;3.03;;;0.60;;
49812;SDS011;35706;52.100;5.056;2023-07-29T01:04:33;2.25;;;0.50;;
49812;SDS011;35706;52.100;5.056;2023-07-29T01:05:36;1.77;;;0.50;;
49812;SDS011;35706;52.100;5.056;2023-07-29T01:07:18;2.97;;;0.60;;
49812;SDS011;35706;52.100;5.056;2023-07-29T01:08:24;1.00;;;0.50;;
49812;SDS011;35706;52.100;5.056;2023-07-29T01:09:37;2.85;;;0.77;;
49812;SDS011;35706;52.100;5.056;2023-07-29T01:10:46;3.85;;;0.55;;
49812;SDS011;35706;52.100;5.056;2023-07-29T01:13:44;1.58;;;0.60;;
49812;SDS011;35706;52.100;5.056;2023-07-29T01:14:59;3.08;;;0.60;;
49812;SDS011;35706;52.100;5.056;2023-07-29T01:17:46;2.08;;;0.60;;
49812;SDS011;35706;52.100;5.056;2023-07-29T01:18:48;2.78;;;0.50;;
49812;SDS011;35706;52.100;5.056;2023-07-29T01:20:02;3.67;;;0.57;;
49812;SDS011;35706;52.100;5.056;2023-07-29T01:21:07;4.05;;;0.60;;
49812;SDS011;35706;52.100;5.056;2023-07-29T01:22:10;3.35;;;0.60;;
49812;SDS011;35706;52.100;5.056;2023-07-29T01:23:11;7.93;;;0.80;;
49812;SDS011;35706;52.100;5.056;2023-07-29T01:24:11;4.15;;;0.60;;
49812;SDS011;35706;52.100;5.056;2023-07-29T01:25:12;3.35;;;0.63;;
49812;SDS011;35706;52.100;5.056;2023-07-29T01:26:12;1.95;;;0.50;;
49812;SDS011;35706;52.100;5.056;2023-07-29T01:27:13;4.78;;;0.60;;
49812;SDS011;35706;52.100;5.056;2023-07-29T01:28:13;3.15;;;0.60;;
49812;SDS011;35706;52.100;5.056;2023-07-29T01:29:13;3.08;;;0.60;;
49812;SDS011;35706;52.100;5.056;2023-07-29T01:30:14;1.40;;;0.63;;
49812;SDS011;35706;52.100;5.056;2023-07-29T01:31:23;3.30;;;0.60;;
49812;SDS011;35706;52.100;5.056;2023-07-29T01:32:34;4.22;;;0.70;;
49812;SDS011;35706;52.100;5.056;2023-07-29T01:36:32;4.47;;;0.60;;
49812;SDS011;35706;52.100;5.056;2023-07-29T01:37:39;3.05;;;0.60;;
49812;SDS011;35706;52.100;5.056;2023-07-29T01:38:42;2.42;;;0.60;;
49812;SDS011;35706;52.100;5.056;2023-07-29T01:39:44;6.32;;;0.70;;
49812;SDS011;35706;52.100;5.056;2023-07-29T01:40:46;2.58;;;0.75;;
49812;SDS011;35706;52.100;5.056;2023-07-29T01:41:49;2.65;;;0.60;;
49812;SDS011;35706;52.100;5.056;2023-07-29T01:42:50;3.55;;;0.70;;
49812;SDS011;35706;52.100;5.056;2023-07-29T01:43:51;3.83;;;0.70;;
49812;SDS011;35706;52.100;5.056;2023-07-29T01:44:53;3.38;;;0.60;;
49812;SDS011;35706;52.100;5.056;2023-07-29T01:45:53;2.88;;;0.70;;
49812;SDS011;35706;52.100;5.056;2023-07-29T01:46:55;4.00;;;0.80;;
49812;SDS011;35706;52.100;5.056;2023-07-29T01:47:59;6.10;;;0.77;;
49812;SDS011;35706;52.100;5.056;2023-07-29T01:49:00;6.63;;;0.60;;
49812;SDS011;35706;52.100;5.056;2023-07-29T01:50:00;4.55;;;0.70;;
49812;SDS011;35706;52.100;5.056;2023-07-29T01:51:00;3.17;;;0.80;;
49812;SDS011;35706;52.100;5.056;2023-07-29T01:52:00;6.13;;;0.80;;
49812;SDS011;35706;52.100;5.056;2023-07-29T01:53:01;3.80;;;0.70;;
49812;SDS011;35706;52.100;5.056;2023-07-29T01:54:01;4.65;;;0.77;;
49812;SDS011;35706;52.100;5.056;2023-07-29T01:55:02;5.50;;;0.70;;
49812;SDS011;35706;52.100;5.056;2023-07-29T01:56:03;4.80;;;0.77;;
49812;SDS011;35706;52.100;5.056;2023-07-29T01:57:03;5.72;;;0.73;;
49812;SDS011;35706;52.100;5.056;2023-07-29T01:58:04;4.07;;;0.85;;
49812;SDS011;35706;52.100;5.056;2023-07-29T01:59:04;2.83;;;0.70;;
49812;SDS011;35706;52.100;5.056;2023-07-29T02:00:05;2.17;;;0.75;;
49812;SDS011;35706;52.100;5.056;2023-07-29T02:01:06;7.40;;;0.90;;
49812;SDS011;35706;52.100;5.056;2023-07-29T02:02:06;6.53;;;0.80;;
49812;SDS011;35706;52.100;5.056;2023-07-29T02:03:06;4.07;;;0.70;;
49812;SDS011;35706;52.100;5.056;2023-07-29T02:04:07;3.15;;;0.80;;
49812;SDS011;35706;52.100;5.056;2023-07-29T02:05:07;5.97;;;0.90;;
49812;SDS011;35706;52.100;5.056;2023-07-29T02:06:07;5.28;;;0.80;;
49812;SDS011;35706;52.100;5.056;2023-07-29T02:07:08;2.83;;;0.80;;
49812;SDS011;35706;52.100;5.056;2023-07-29T02:08:08;8.57;;;0.73;;
49812;SDS011;35706;52.100;5.056;2023-07-29T02:09:09;5.32;;;1.10;;
49812;SDS011;35706;52.100;5.056;2023-07-29T02:10:09;6.95;;;0.82;;
49812;SDS011;35706;52.100;5.056;2023-07-29T02:11:09;2.50;;;0.90;;
49812;SDS011;35706;52.100;5.056;2023-07-29T02:12:10;7.93;;;0.73;;
49812;SDS011;35706;52.100;5.056;2023-07-29T02:13:11;5.95;;;0.73;;
49812;SDS011;35706;52.100;5.056;2023-07-29T02:14:11;3.85;;;0.80;;
49812;SDS011;35706;52.100;5.056;2023-07-29T02:15:12;5.40;;;0.90;;
49812;SDS011;35706;52.100;5.056;2023-07-29T02:16:12;4.45;;;1.08;;
49812;SDS011;35706;52.100;5.056;2023-07-29T02:17:12;3.15;;;0.90;;
49812;SDS011;35706;52.100;5.056;2023-07-29T02:18:13;4.30;;;0.80;;
49812;SDS011;35706;52.100;5.056;2023-07-29T02:19:13;2.65;;;0.88;;
49812;SDS011;35706;52.100;5.056;2023-07-29T02:20:13;4.15;;;1.00;;
49812;SDS011;35706;52.100;5.056;2023-07-29T02:21:14;5.95;;;0.90;;
49812;SDS011;35706;52.100;5.056;2023-07-29T02:22:15;3.85;;;0.80;;
49812;SDS011;35706;52.100;5.056;2023-07-29T02:23:16;4.78;;;1.05;;
49812;SDS011;35706;52.100;5.056;2023-07-29T02:24:17;4.90;;;1.00;;
49812;SDS011;35706;52.100;5.056;2023-07-29T02:25:17;6.38;;;0.90;;
49812;SDS011;35706;52.100;5.056;2023-07-29T02:26:18;3.33;;;0.90;;
49812;SDS011;35706;52.100;5.056;2023-07-29T02:27:18;3.25;;;0.75;;
49812;SDS011;35706;52.100;5.056;2023-07-29T02:28:18;3.08;;;0.90;;
49812;SDS011;35706;52.100;5.056;2023-07-29T02:29:18;6.70;;;0.80;;
49812;SDS011;35706;52.100;5.056;2023-07-29T02:30:20;3.97;;;0.88;;
49812;SDS011;35706;52.100;5.056;2023-07-29T02:31:21;4.78;;;0.70;;
49812;SDS011;35706;52.100;5.056;2023-07-29T02:32:23;3.50;;;0.80;;
49812;SDS011;35706;52.100;5.056;2023-07-29T02:33:24;6.07;;;0.80;;
49812;SDS011;35706;52.100;5.056;2023-07-29T02:34:24;5.38;;;0.90;;
49812;SDS011;35706;52.100;5.056;2023-07-29T02:35:25;4.10;;;0.90;;
49812;SDS011;35706;52.100;5.056;2023-07-29T02:36:25;4.25;;;0.70;;
49812;SDS011;35706;52.100;5.056;2023-07-29T02:37:26;4.35;;;0.80;;
49812;SDS011;35706;52.100;5.056;2023-07-29T02:38:26;1.67;;;0.60;;
49812;SDS011;35706;52.100;5.056;2023-07-29T02:39:26;3.70;;;0.70;;
49812;SDS011;35706;52.100;5.056;2023-07-29T02:40:27;2.40;;;0.60;;
49812;SDS011;35706;52.100;5.056;2023-07-29T02:41:29;1.63;;;0.60;;
49812;SDS011;35706;52.100;5.056;2023-07-29T02:42:29;2.20;;;0.60;;
49812;SDS011;35706;52.100;5.056;2023-07-29T02:43:29;2.47;;;0.60;;
49812;SDS011;35706;52.100;5.056;2023-07-29T02:44:30;2.13;;;0.60;;
49812;SDS011;35706;52.100;5.056;2023-07-29T02:45:30;3.53;;;0.60;;
49812;SDS011;35706;52.100;5.056;2023-07-29T02:46:30;2.70;;;0.60;;
49812;SDS011;35706;52.100;5.056;2023-07-29T02:47:31;3.28;;;0.88;;
49812;SDS011;35706;52.100;5.056;2023-07-29T02:48:31;2.00;;;0.60;;
49812;SDS011;35706;52.100;5.056;2023-07-29T02:49:32;1.55;;;0.50;;
49812;SDS011;35706;52.100;5.056;2023-07-29T02:50:34;4.30;;;0.60;;
49812;SDS011;35706;52.100;5.056;2023-07-29T02:51:34;3.20;;;0.65;;
49812;SDS011;35706;52.100;5.056;2023-07-29T02:52:34;2.22;;;0.55;;
49812;SDS011;35706;52.100;5.056;2023-07-29T02:53:35;7.60;;;0.70;;
49812;SDS011;35706;52.100;5.056;2023-07-29T02:54:36;2.08;;;0.60;;
49812;SDS011;35706;52.100;5.056;2023-07-29T02:55:40;3.03;;;0.60;;
49812;SDS011;35706;52.100;5.056;2023-07-29T02:56:40;3.88;;;0.60;;
49812;SDS011;35706;52.100;5.056;2023-07-29T02:57:41;3.85;;;0.60;;
49812;SDS011;35706;52.100;5.056;2023-07-29T02:58:41;2.88;;;0.60;;
49812;SDS011;35706;52.100;5.056;2023-07-29T02:59:42;1.45;;;0.60;;
49812;SDS011;35706;52.100;5.056;2023-07-29T03:00:42;2.10;;;0.50;;
49812;SDS011;35706;52.100;5.056;2023-07-29T03:01:43;1.55;;;0.60;;
49812;SDS011;35706;52.100;5.056;2023-07-29T03:02:43;3.63;;;0.60;;
49812;SDS011;35706;52.100;5.056;2023-07-29T03:03:44;4.07;;;0.50;;
49812;SDS011;35706;52.100;5.056;2023-07-29T03:04:44;2.17;;;0.50;;
49812;SDS011;35706;52.100;5.056;2023-07-29T03:05:45;2.33;;;0.50;;
49812;SDS011;35706;52.100;5.056;2023-07-29T03:06:45;2.75;;;0.50;;
49812;SDS011;35706;52.100;5.056;2023-07-29T03:07:47;2.80;;;0.50;;
49812;SDS011;35706;52.100;5.056;2023-07-29T03:08:48;2.13;;;0.50;;
49812;SDS011;35706;52.100;5.056;2023-07-29T03:09:48;4.55;;;0.77;;
49812;SDS011;35706;52.100;5.056;2023-07-29T03:10:48;1.48;;;0.50;;
49812;SDS011;35706;52.100;5.056;2023-07-29T03:11:48;1.88;;;0.50;;
49812;SDS011;35706;52.100;5.056;2023-07-29T03:12:49;2.75;;;0.50;;
49812;SDS011;35706;52.100;5.056;2023-07-29T03:13:49;2.28;;;0.50;;
49812;SDS011;35706;52.100;5.056;2023-07-29T03:14:49;2.20;;;0.60;;
49812;SDS011;35706;52.100;5.056;2023-07-29T03:15:50;2.58;;;0.50;;
49812;SDS011;35706;52.100;5.056;2023-07-29T03:16:51;1.60;;;0.60;;
49812;SDS011;35706;52.100;5.056;2023-07-29T03:17:52;1.77;;;0.60;;
49812;SDS011;35706;52.100;5.056;2023-07-29T03:18:52;3.33;;;0.50;;
49812;SDS011;35706;52.100;5.056;2023-07-29T03:19:53;2.35;;;0.60;;
49812;SDS011;35706;52.100;5.056;2023-07-29T03:20:55;1.42;;;0.50;;
49812;SDS011;35706;52.100;5.056;2023-07-29T03:21:55;1.88;;;0.60;;
49812;SDS011;35706;52.100;5.056;2023-07-29T03:22:56;2.28;;;0.60;;
49812;SDS011;35706;52.100;5.056;2023-07-29T03:23:56;1.58;;;0.60;;
49812;SDS011;35706;52.100;5.056;2023-07-29T03:24:57;2.30;;;0.60;;
49812;SDS011;35706;52.100;5.056;2023-07-29T03:25:58;2.80;;;0.60;;
49812;SDS011;35706;52.100;5.056;2023-07-29T03:26:59;1.63;;;0.50;;
49812;SDS011;35706;52.100;5.056;2023-07-29T03:27:59;1.42;;;0.50;;
49812;SDS011;35706;52.100;5.056;2023-07-29T03:29:00;1.83;;;0.60;;
49812;SDS011;35706;52.100;5.056;2023-07-29T03:30:00;1.30;;;0.50;;
49812;SDS011;35706;52.100;5.056;2023-07-29T03:31:00;2.38;;;0.50;;
49812;SDS011;35706;52.100;5.056;2023-07-29T03:32:01;2.30;;;0.50;;
49812;SDS011;35706;52.100;5.056;2023-07-29T03:33:03;2.85;;;0.50;;
49812;SDS011;35706;52.100;5.056;2023-07-29T03:34:04;1.85;;;0.52;;
49812;SDS011;35706;52.100;5.056;2023-07-29T03:35:04;0.93;;;0.50;;
49812;SDS011;35706;52.100;5.056;2023-07-29T03:36:05;2.35;;;0.50;;
49812;SDS011;35706;52.100;5.056;2023-07-29T03:37:05;1.63;;;0.45;;
49812;SDS011;35706;52.100;5.056;2023-07-29T03:38:06;3.10;;;0.50;;
49812;SDS011;35706;52.100;5.056;2023-07-29T03:39:06;1.25;;;0.50;;
49812;SDS011;35706;52.100;5.056;2023-07-29T03:40:07;3.65;;;0.50;;
49812;SDS011;35706;52.100;5.056;2023-07-29T03:41:11;1.88;;;0.60;;
49812;SDS011;35706;52.100;5.056;2023-07-29T03:42:12;1.48;;;0.50;;
49812;SDS011;35706;52.100;5.056;2023-07-29T03:43:12;1.75;;;0.40;;
49812;SDS011;35706;52.100;5.056;2023-07-29T03:44:13;2.03;;;0.40;;
49812;SDS011;35706;52.100;5.056;2023-07-29T03:45:13;2.53;;;0.50;;
49812;SDS011;35706;52.100;5.056;2023-07-29T03:46:14;1.20;;;0.47;;
49812;SDS011;35706;52.100;5.056;2023-07-29T03:47:17;1.98;;;0.52;;
49812;SDS011;35706;52.100;5.056;2023-07-29T03:48:18;2.35;;;0.50;;
49812;SDS011;35706;52.100;5.056;2023-07-29T03:49:18;9.85;;;0.60;;
49812;SDS011;35706;52.100;5.056;2023-07-29T03:50:18;2.75;;;0.50;;
49812;SDS011;35706;52.100;5.056;2023-07-29T03:51:19;3.28;;;0.60;;
49812;SDS011;35706;52.100;5.056;2023-07-29T03:52:19;2.15;;;0.55;;
49812;SDS011;35706;52.100;5.056;2023-07-29T03:53:20;1.17;;;0.50;;
49812;SDS011;35706;52.100;5.056;2023-07-29T03:54:20;1.55;;;0.57;;
49812;SDS011;35706;52.100;5.056;2023-07-29T03:55:20;2.65;;;0.50;;
49812;SDS011;35706;52.100;5.056;2023-07-29T03:56:21;1.73;;;0.50;;
49812;SDS011;35706;52.100;5.056;2023-07-29T03:57:21;3.17;;;0.50;;
49812;SDS011;35706;52.100;5.056;2023-07-29T03:58:22;1.95;;;0.50;;
49812;SDS011;35706;52.100;5.056;2023-07-29T03:59:22;3.22;;;0.40;;
49812;SDS011;35706;52.100;5.056;2023-07-29T04:00:23;2.38;;;0.50;;
49812;SDS011;35706;52.100;5.056;2023-07-29T04:01:23;3.60;;;0.60;;
49812;SDS011;35706;52.100;5.056;2023-07-29T04:02:23;0.98;;;0.50;;
49812;SDS011;35706;52.100;5.056;2023-07-29T04:03:24;1.30;;;0.50;;
49812;SDS011;35706;52.100;5.056;2023-07-29T04:04:24;1.05;;;0.57;;
49812;SDS011;35706;52.100;5.056;2023-07-29T04:05:24;4.20;;;0.50;;
49812;SDS011;35706;52.100;5.056;2023-07-29T04:06:25;4.38;;;0.70;;
49812;SDS011;35706;52.100;5.056;2023-07-29T04:07:25;2.65;;;0.50;;
49812;SDS011;35706;52.100;5.056;2023-07-29T04:08:26;2.13;;;0.60;;
49812;SDS011;35706;52.100;5.056;2023-07-29T04:09:26;2.65;;;0.50;;
49812;SDS011;35706;52.100;5.056;2023-07-29T04:10:26;2.90;;;0.50;;
49812;SDS011;35706;52.100;5.056;2023-07-29T04:11:27;2.47;;;0.57;;
49812;SDS011;35706;52.100;5.056;2023-07-29T04:12:27;1.85;;;0.50;;
49812;SDS011;35706;52.100;5.056;2023-07-29T04:13:28;1.75;;;0.50;;
49812;SDS011;35706;52.100;5.056;2023-07-29T04:14:28;3.47;;;0.50;;
49812;SDS011;35706;52.100;5.056;2023-07-29T04:15:28;2.75;;;0.60;;
49812;SDS011;35706;52.100;5.056;2023-07-29T04:16:30;1.25;;;0.50;;
49812;SDS011;35706;52.100;5.056;2023-07-29T04:17:30;2.03;;;0.60;;
49812;SDS011;35706;52.100;5.056;2023-07-29T04:18:31;1.10;;;0.52;;
49812;SDS011;35706;52.100;5.056;2023-07-29T04:19:31;3.70;;;0.60;;
49812;SDS011;35706;52.100;5.056;2023-07-29T04:20:31;1.60;;;0.50;;
49812;SDS011;35706;52.100;5.056;2023-07-29T04:21:33;0.85;;;0.40;;
49812;SDS011;35706;52.100;5.056;2023-07-29T04:22:34;1.80;;;0.50;;
49812;SDS011;35706;52.100;5.056;2023-07-29T04:23:34;2.75;;;0.50;;
49812;SDS011;35706;52.100;5.056;2023-07-29T04:24:35;1.67;;;0.50;;
49812;SDS011;35706;52.100;5.056;2023-07-29T04:25:35;1.17;;;0.40;;
49812;SDS011;35706;52.100;5.056;2023-07-29T04:26:35;2.75;;;0.50;;
49812;SDS011;35706;52.100;5.056;2023-07-29T04:27:36;3.08;;;0.50;;
49812;SDS011;35706;52.100;5.056;2023-07-29T04:28:36;4.20;;;0.50;;
49812;SDS011;35706;52.100;5.056;2023-07-29T04:29:36;0.90;;;0.50;;
49812;SDS011;35706;52.100;5.056;2023-07-29T04:30:37;1.83;;;0.52;;
49812;SDS011;35706;52.100;5.056;2023-07-29T04:31:37;1.90;;;0.50;;
49812;SDS011;35706;52.100;5.056;2023-07-29T04:32:38;1.58;;;0.60;;
49812;SDS011;35706;52.100;5.056;2023-07-29T04:33:38;2.30;;;0.50;;
49812;SDS011;35706;52.100;5.056;2023-07-29T04:34:39;3.40;;;0.60;;
49812;SDS011;35706;52.100;5.056;2023-07-29T04:35:39;1.20;;;0.50;;
49812;SDS011;35706;52.100;5.056;2023-07-29T04:36:40;1.88;;;0.65;;
49812;SDS011;35706;52.100;5.056;2023-07-29T04:37:40;2.50;;;0.60;;
49812;SDS011;35706;52.100;5.056;2023-07-29T04:38:40;5.38;;;0.50;;
49812;SDS011;35706;52.100;5.056;2023-07-29T04:39:41;4.18;;;0.60;;
49812;SDS011;35706;52.100;5.056;2023-07-29T04:40:41;4.22;;;0.60;;
49812;SDS011;35706;52.100;5.056;2023-07-29T04:41:41;1.20;;;0.50;;
49812;SDS011;35706;52.100;5.056;2023-07-29T04:42:42;1.67;;;0.52;;
49812;SDS011;35706;52.100;5.056;2023-07-29T04:43:42;1.20;;;0.52;;
49812;SDS011;35706;52.100;5.056;2023-07-29T04:44:43;1.38;;;0.60;;
49812;SDS011;35706;52.100;5.056;2023-07-29T04:45:43;2.45;;;0.55;;
49812;SDS011;35706;52.100;5.056;2023-07-29T04:46:44;4.88;;;0.60;;
49812;SDS011;35706;52.100;5.056;2023-07-29T04:47:44;2.70;;;0.60;;
49812;SDS011;35706;52.100;5.056;2023-07-29T04:48:45;2.22;;;0.50;;
49812;SDS011;35706;52.100;5.056;2023-07-29T04:49:45;3.33;;;0.60;;
49812;SDS011;35706;52.100;5.056;2023-07-29T04:50:45;1.63;;;0.60;;
49812;SDS011;35706;52.100;5.056;2023-07-29T04:51:46;1.95;;;0.63;;
49812;SDS011;35706;52.100;5.056;2023-07-29T04:52:46;3.45;;;0.57;;
49812;SDS011;35706;52.100;5.056;2023-07-29T04:53:46;3.42;;;0.50;;
49812;SDS011;35706;52.100;5.056;2023-07-29T04:54:47;3.60;;;0.73;;
49812;SDS011;35706;52.100;5.056;2023-07-29T04:55:47;3.58;;;0.70;;
49812;SDS011;35706;52.100;5.056;2023-07-29T04:56:48;3.80;;;0.60;;
49812;SDS011;35706;52.100;5.056;2023-07-29T04:57:48;1.60;;;0.60;;
49812;SDS011;35706;52.100;5.056;2023-07-29T04:58:48;2.28;;;0.60;;
49812;SDS011;35706;52.100;5.056;2023-07-29T04:59:49;3.55;;;0.60;;
49812;SDS011;35706;52.100;5.056;2023-07-29T05:00:49;2.60;;;0.60;;
49812;SDS011;35706;52.100;5.056;2023-07-29T05:01:49;5.32;;;0.60;;
49812;SDS011;35706;52.100;5.056;2023-07-29T05:02:50;3.35;;;0.70;;
49812;SDS011;35706;52.100;5.056;2023-07-29T05:03:51;2.08;;;0.50;;
49812;SDS011;35706;52.100;5.056;2023-07-29T05:04:51;2.17;;;0.60;;
49812;SDS011;35706;52.100;5.056;2023-07-29T05:05:52;1.65;;;0.60;;
49812;SDS011;35706;52.100;5.056;2023-07-29T05:06:54;1.77;;;0.60;;
49812;SDS011;35706;52.100;5.056;2023-07-29T05:07:54;5.63;;;0.60;;
49812;SDS011;35706;52.100;5.056;2023-07-29T05:08:56;2.47;;;0.70;;
49812;SDS011;35706;52.100;5.056;2023-07-29T05:09:57;2.53;;;0.60;;
49812;SDS011;35706;52.100;5.056;2023-07-29T05:10:58;6.45;;;0.65;;
49812;SDS011;35706;52.100;5.056;2023-07-29T05:11:58;4.05;;;0.70;;
49812;SDS011;35706;52.100;5.056;2023-07-29T05:12:58;2.90;;;0.63;;
49812;SDS011;35706;52.100;5.056;2023-07-29T05:13:59;3.03;;;0.60;;
49812;SDS011;35706;52.100;5.056;2023-07-29T05:14:59;2.53;;;0.65;;
49812;SDS011;35706;52.100;5.056;2023-07-29T05:16:00;2.08;;;0.80;;
49812;SDS011;35706;52.100;5.056;2023-07-29T05:17:00;2.03;;;0.60;;
49812;SDS011;35706;52.100;5.056;2023-07-29T05:18:00;2.30;;;0.68;;
49812;SDS011;35706;52.100;5.056;2023-07-29T05:19:01;2.03;;;0.68;;
49812;SDS011;35706;52.100;5.056;2023-07-29T05:20:01;2.60;;;0.70;;
49812;SDS011;35706;52.100;5.056;2023-07-29T05:21:01;2.95;;;0.60;;
49812;SDS011;35706;52.100;5.056;2023-07-29T05:22:02;3.65;;;0.80;;
49812;SDS011;35706;52.100;5.056;2023-07-29T05:23:02;2.67;;;0.63;;
49812;SDS011;35706;52.100;5.056;2023-07-29T05:24:03;2.35;;;0.70;;
49812;SDS011;35706;52.100;5.056;2023-07-29T05:25:03;4.25;;;0.80;;
49812;SDS011;35706;52.100;5.056;2023-07-29T05:26:04;3.47;;;0.70;;
49812;SDS011;35706;52.100;5.056;2023-07-29T05:27:04;3.47;;;0.68;;
49812;SDS011;35706;52.100;5.056;2023-07-29T05:28:05;3.95;;;0.80;;
49812;SDS011;35706;52.100;5.056;2023-07-29T05:29:05;3.42;;;0.70;;
49812;SDS011;35706;52.100;5.056;2023-07-29T05:30:07;3.67;;;0.70;;
49812;SDS011;35706;52.100;5.056;2023-07-29T05:31:07;1.77;;;0.70;;
49812;SDS011;35706;52.100;5.056;2023-07-29T05:32:08;3.88;;;0.80;;
49812;SDS011;35706;52.100;5.056;2023-07-29T05:33:08;4.00;;;0.90;;
49812;SDS011;35706;52.100;5.056;2023-07-29T05:34:08;3.38;;;0.88;;
49812;SDS011;35706;52.100;5.056;2023-07-29T05:35:09;2.20;;;0.80;;
49812;SDS011;35706;52.100;5.056;2023-07-29T05:36:10;3.65;;;0.98;;
49812;SDS011;35706;52.100;5.056;2023-07-29T05:37:10;4.43;;;0.93;;
49812;SDS011;35706;52.100;5.056;2023-07-29T05:38:10;3.08;;;0.98;;
49812;SDS011;35706;52.100;5.056;2023-07-29T05:39:11;4.25;;;1.10;;
49812;SDS011;35706;52.100;5.056;2023-07-29T05:40:12;5.25;;;0.93;;
49812;SDS011;35706;52.100;5.056;2023-07-29T05:41:12;2.70;;;0.93;;
49812;SDS011;35706;52.100;5.056;2023-07-29T05:42:13;5.20;;;1.08;;
49812;SDS011;35706;52.100;5.056;2023-07-29T05:43:13;4.00;;;1.00;;
49812;SDS011;35706;52.100;5.056;2023-07-29T05:44:14;2.35;;;0.82;;
49812;SDS011;35706;52.100;5.056;2023-07-29T05:45:14;3.92;;;0.82;;
49812;SDS011;35706;52.100;5.056;2023-07-29T05:46:15;5.97;;;1.17;;
49812;SDS011;35706;52.100;5.056;2023-07-29T05:47:15;7.07;;;0.95;;
49812;SDS011;35706;52.100;5.056;2023-07-29T05:48:16;3.47;;;1.05;;
49812;SDS011;35706;52.100;5.056;2023-07-29T05:49:16;3.38;;;1.02;;
49812;SDS011;35706;52.100;5.056;2023-07-29T05:50:19;3.83;;;1.17;;
49812;SDS011;35706;52.100;5.056;2023-07-29T05:51:20;3.15;;;1.15;;
49812;SDS011;35706;52.100;5.056;2023-07-29T05:52:20;4.68;;;1.00;;
49812;SDS011;35706;52.100;5.056;2023-07-29T05:53:20;4.18;;;1.17;;
49812;SDS011;35706;52.100;5.056;2023-07-29T05:54:21;5.80;;;1.40;;
49812;SDS011;35706;52.100;5.056;2023-07-29T05:55:21;4.50;;;1.00;;
49812;SDS011;35706;52.100;5.056;2023-07-29T05:56:21;7.00;;;1.35;;
49812;SDS011;35706;52.100;5.056;2023-07-29T05:57:22;3.08;;;1.45;;
49812;SDS011;35706;52.100;5.056;2023-07-29T05:58:22;5.47;;;1.05;;
49812;SDS011;35706;52.100;5.056;2023-07-29T05:59:22;4.60;;;1.40;;
49812;SDS011;35706;52.100;5.056;2023-07-29T06:00:23;3.30;;;1.17;;
49812;SDS011;35706;52.100;5.056;2023-07-29T06:01:23;3.00;;;1.02;;
49812;SDS011;35706;52.100;5.056;2023-07-29T06:02:23;5.00;;;1.23;;
49812;SDS011;35706;52.100;5.056;2023-07-29T06:03:24;2.60;;;1.40;;
49812;SDS011;35706;52.100;5.056;2023-07-29T06:04:24;6.75;;;1.35;;
49812;SDS011;35706;52.100;5.056;2023-07-29T06:05:24;6.85;;;1.30;;
49812;SDS011;35706;52.100;5.056;2023-07-29T06:06:25;3.60;;;1.30;;
49812;SDS011;35706;52.100;5.056;2023-07-29T06:07:25;4.28;;;1.13;;
49812;SDS011;35706;52.100;5.056;2023-07-29T06:08:29;5.43;;;1.38;;
49812;SDS011;35706;52.100;5.056;2023-07-29T06:09:32;3.90;;;1.20;;
49812;SDS011;35706;52.100;5.056;2023-07-29T06:10:33;4.63;;;1.48;;
49812;SDS011;35706;52.100;5.056;2023-07-29T06:11:33;6.90;;;1.60;;
49812;SDS011;35706;52.100;5.056;2023-07-29T06:12:34;5.88;;;1.80;;
49812;SDS011;35706;52.100;5.056;2023-07-29T06:13:34;3.50;;;1.20;;
49812;SDS011;35706;52.100;5.056;2023-07-29T06:14:34;5.43;;;1.60;;